sensor_id;sensor_type;location;lat;lon;timestamp;P1;durP1;ratioP1;P2;durP2;ratioP2
43114;SDS011;28727;50.068;14.452;2024-01-30T00:00:05;66.50;;;26.25;;
43114;SDS011;28727;50.068;14.452;2024-01-30T00:02:42;64.63;;;25.63;;
43114;SDS011;28727;50.068;14.452;2024-01-30T00:05:14;61.20;;;25.45;;
43114;SDS011;28727;50.068;14.452;2024-01-30T00:07:50;63.95;;;25.42;;
43114;SDS011;28727;50.068;14.452;2024-01-30T00:10:23;63.53;;;25.88;;
43114;SDS011;28727;50.068;14.452;2024-01-30T00:12:55;58.58;;;25.45;;
43114;SDS011;28727;50.068;14.452;2024-01-30T00:15:27;61.97;;;24.70;;
43114;SDS011;28727;50.068;14.452;2024-01-30T00:17:59;55.50;;;24.27;;
43114;SDS011;28727;50.068;14.452;2024-01-30T00:20:31;52.20;;;25.35;;
43114;SDS011;28727;50.068;14.452;2024-01-30T00:23:02;55.83;;;24.63;;
43114;SDS011;28727;50.068;14.452;2024-01-30T00:25:35;58.03;;;25.10;;
43114;SDS011;28727;50.068;14.452;2024-01-30T00:28:06;59.50;;;24.98;;
43114;SDS011;28727;50.068;14.452;2024-01-30T00:30:39;54.05;;;24.23;;
43114;SDS011;28727;50.068;14.452;2024-01-30T00:33:11;61.40;;;24.98;;
43114;SDS011;28727;50.068;14.452;2024-01-30T00:35:43;72.95;;;26.02;;
43114;SDS011;28727;50.068;14.452;2024-01-30T00:38:16;74.78;;;27.98;;
43114;SDS011;28727;50.068;14.452;2024-01-30T00:40:48;61.97;;;26.60;;
43114;SDS011;28727;50.068;14.452;2024-01-30T00:43:20;89.28;;;27.88;;
43114;SDS011;28727;50.068;14.452;2024-01-30T00:45:53;71.38;;;26.50;;
43114;SDS011;28727;50.068;14.452;2024-01-30T00:48:25;65.00;;;27.17;;
43114;SDS011;28727;50.068;14.452;2024-01-30T00:50:57;98.32;;;29.75;;
43114;SDS011;28727;50.068;14.452;2024-01-30T00:53:29;91.43;;;27.27;;
43114;SDS011;28727;50.068;14.452;2024-01-30T00:56:01;85.95;;;26.10;;
43114;SDS011;28727;50.068;14.452;2024-01-30T00:58:35;68.47;;;25.98;;
43114;SDS011;28727;50.068;14.452;2024-01-30T01:01:06;76.03;;;26.73;;
43114;SDS011;28727;50.068;14.452;2024-01-30T01:03:39;91.20;;;26.10;;
43114;SDS011;28727;50.068;14.452;2024-01-30T01:06:12;95.10;;;28.33;;
43114;SDS011;28727;50.068;14.452;2024-01-30T01:08:49;92.63;;;29.05;;
43114;SDS011;28727;50.068;14.452;2024-01-30T01:13:53;123.03;;;27.50;;
43114;SDS011;28727;50.068;14.452;2024-01-30T01:16:29;175.43;;;29.17;;
43114;SDS011;28727;50.068;14.452;2024-01-30T01:19:07;80.18;;;25.90;;
43114;SDS011;28727;50.068;14.452;2024-01-30T01:21:39;81.28;;;27.08;;
43114;SDS011;28727;50.068;14.452;2024-01-30T01:24:11;95.20;;;25.77;;
43114;SDS011;28727;50.068;14.452;2024-01-30T01:26:43;192.13;;;28.75;;
43114;SDS011;28727;50.068;14.452;2024-01-30T01:29:16;179.03;;;28.50;;
43114;SDS011;28727;50.068;14.452;2024-01-30T01:31:55;66.68;;;25.50;;
43114;SDS011;28727;50.068;14.452;2024-01-30T01:34:28;147.48;;;26.95;;
43114;SDS011;28727;50.068;14.452;2024-01-30T01:37:01;137.00;;;27.48;;
43114;SDS011;28727;50.068;14.452;2024-01-30T01:39:33;113.13;;;26.85;;
43114;SDS011;28727;50.068;14.452;2024-01-30T01:42:08;76.43;;;25.38;;
43114;SDS011;28727;50.068;14.452;2024-01-30T01:44:42;161.35;;;28.77;;
43114;SDS011;28727;50.068;14.452;2024-01-30T01:47:14;101.22;;;28.27;;
43114;SDS011;28727;50.068;14.452;2024-01-30T01:49:47;73.53;;;25.52;;
43114;SDS011;28727;50.068;14.452;2024-01-30T01:52:21;148.02;;;27.05;;
43114;SDS011;28727;50.068;14.452;2024-01-30T01:54:53;78.63;;;24.13;;
43114;SDS011;28727;50.068;14.452;2024-01-30T01:57:25;97.70;;;25.40;;
43114;SDS011;28727;50.068;14.452;2024-01-30T01:59:57;78.70;;;24.35;;
43114;SDS011;28727;50.068;14.452;2024-01-30T02:02:31;64.80;;;25.02;;
43114;SDS011;28727;50.068;14.452;2024-01-30T02:05:13;81.22;;;24.15;;
43114;SDS011;28727;50.068;14.452;2024-01-30T02:07:46;68.13;;;24.40;;
43114;SDS011;28727;50.068;14.452;2024-01-30T02:10:19;82.85;;;25.38;;
43114;SDS011;28727;50.068;14.452;2024-01-30T02:12:51;58.08;;;24.65;;
43114;SDS011;28727;50.068;14.452;2024-01-30T02:15:25;68.35;;;25.10;;
43114;SDS011;28727;50.068;14.452;2024-01-30T02:17:57;170.90;;;28.60;;
43114;SDS011;28727;50.068;14.452;2024-01-30T02:20:29;118.95;;;28.08;;
43114;SDS011;28727;50.068;14.452;2024-01-30T02:23:03;91.40;;;25.75;;
43114;SDS011;28727;50.068;14.452;2024-01-30T02:25:38;88.70;;;25.45;;
43114;SDS011;28727;50.068;14.452;2024-01-30T02:28:15;84.70;;;24.60;;
43114;SDS011;28727;50.068;14.452;2024-01-30T02:30:52;132.90;;;26.83;;
43114;SDS011;28727;50.068;14.452;2024-01-30T02:33:30;92.78;;;26.00;;
43114;SDS011;28727;50.068;14.452;2024-01-30T02:36:02;183.05;;;28.65;;
43114;SDS011;28727;50.068;14.452;2024-01-30T02:38:35;104.05;;;27.15;;
43114;SDS011;28727;50.068;14.452;2024-01-30T02:41:07;78.85;;;24.55;;
43114;SDS011;28727;50.068;14.452;2024-01-30T02:43:39;93.95;;;25.02;;
43114;SDS011;28727;50.068;14.452;2024-01-30T02:46:11;66.72;;;25.52;;
43114;SDS011;28727;50.068;14.452;2024-01-30T02:48:45;64.47;;;24.63;;
43114;SDS011;28727;50.068;14.452;2024-01-30T02:51:17;78.40;;;25.73;;
43114;SDS011;28727;50.068;14.452;2024-01-30T02:53:48;65.43;;;23.83;;
43114;SDS011;28727;50.068;14.452;2024-01-30T02:56:23;66.03;;;24.73;;
43114;SDS011;28727;50.068;14.452;2024-01-30T02:58:58;103.63;;;26.95;;
43114;SDS011;28727;50.068;14.452;2024-01-30T03:01:33;72.63;;;24.80;;
43114;SDS011;28727;50.068;14.452;2024-01-30T03:04:13;114.60;;;26.67;;
43114;SDS011;28727;50.068;14.452;2024-01-30T03:06:47;71.20;;;26.10;;
43114;SDS011;28727;50.068;14.452;2024-01-30T03:09:20;76.78;;;24.50;;
43114;SDS011;28727;50.068;14.452;2024-01-30T03:11:57;67.03;;;24.13;;
43114;SDS011;28727;50.068;14.452;2024-01-30T03:17:07;65.05;;;24.02;;
43114;SDS011;28727;50.068;14.452;2024-01-30T03:19:39;81.93;;;27.30;;
43114;SDS011;28727;50.068;14.452;2024-01-30T03:22:22;65.50;;;24.02;;
43114;SDS011;28727;50.068;14.452;2024-01-30T03:25:19;91.40;;;24.70;;
43114;SDS011;28727;50.068;14.452;2024-01-30T03:27:51;76.88;;;26.38;;
43114;SDS011;28727;50.068;14.452;2024-01-30T03:30:23;78.05;;;25.65;;
43114;SDS011;28727;50.068;14.452;2024-01-30T03:33:00;93.80;;;25.85;;
43114;SDS011;28727;50.068;14.452;2024-01-30T03:35:33;89.32;;;24.58;;
43114;SDS011;28727;50.068;14.452;2024-01-30T03:38:05;96.15;;;26.00;;
43114;SDS011;28727;50.068;14.452;2024-01-30T03:40:36;180.32;;;31.45;;
43114;SDS011;28727;50.068;14.452;2024-01-30T03:43:08;140.30;;;27.92;;
43114;SDS011;28727;50.068;14.452;2024-01-30T03:45:48;124.28;;;28.25;;
43114;SDS011;28727;50.068;14.452;2024-01-30T03:48:20;77.75;;;26.58;;
43114;SDS011;28727;50.068;14.452;2024-01-30T03:50:53;80.57;;;26.50;;
43114;SDS011;28727;50.068;14.452;2024-01-30T03:53:25;69.22;;;23.80;;
43114;SDS011;28727;50.068;14.452;2024-01-30T03:55:57;93.65;;;25.35;;
43114;SDS011;28727;50.068;14.452;2024-01-30T03:58:29;141.85;;;27.45;;
43114;SDS011;28727;50.068;14.452;2024-01-30T04:01:05;78.15;;;25.60;;
43114;SDS011;28727;50.068;14.452;2024-01-30T04:03:37;78.10;;;24.48;;
43114;SDS011;28727;50.068;14.452;2024-01-30T04:06:09;96.85;;;25.83;;
43114;SDS011;28727;50.068;14.452;2024-01-30T04:08:41;78.72;;;24.27;;
43114;SDS011;28727;50.068;14.452;2024-01-30T04:11:13;69.30;;;22.92;;
43114;SDS011;28727;50.068;14.452;2024-01-30T04:13:45;73.85;;;24.10;;
43114;SDS011;28727;50.068;14.452;2024-01-30T04:16:22;64.85;;;22.73;;
43114;SDS011;28727;50.068;14.452;2024-01-30T04:18:58;152.73;;;25.80;;
43114;SDS011;28727;50.068;14.452;2024-01-30T04:21:35;193.45;;;29.92;;
43114;SDS011;28727;50.068;14.452;2024-01-30T04:24:31;76.13;;;23.40;;
43114;SDS011;28727;50.068;14.452;2024-01-30T04:27:03;67.28;;;22.88;;
43114;SDS011;28727;50.068;14.452;2024-01-30T04:29:38;63.42;;;22.63;;
43114;SDS011;28727;50.068;14.452;2024-01-30T04:32:11;69.13;;;23.42;;
43114;SDS011;28727;50.068;14.452;2024-01-30T04:34:43;57.60;;;23.15;;
43114;SDS011;28727;50.068;14.452;2024-01-30T04:37:15;64.88;;;22.85;;
43114;SDS011;28727;50.068;14.452;2024-01-30T04:39:47;58.38;;;22.85;;
43114;SDS011;28727;50.068;14.452;2024-01-30T04:42:19;49.92;;;22.20;;
43114;SDS011;28727;50.068;14.452;2024-01-30T04:44:54;51.75;;;22.33;;
43114;SDS011;28727;50.068;14.452;2024-01-30T04:47:29;52.40;;;21.55;;
43114;SDS011;28727;50.068;14.452;2024-01-30T04:50:01;46.55;;;20.70;;
43114;SDS011;28727;50.068;14.452;2024-01-30T04:53:01;47.28;;;21.65;;
43114;SDS011;28727;50.068;14.452;2024-01-30T04:55:34;62.38;;;22.13;;
43114;SDS011;28727;50.068;14.452;2024-01-30T04:58:07;59.63;;;24.10;;
43114;SDS011;28727;50.068;14.452;2024-01-30T05:00:39;83.07;;;24.30;;
43114;SDS011;28727;50.068;14.452;2024-01-30T05:03:15;50.78;;;21.65;;
43114;SDS011;28727;50.068;14.452;2024-01-30T05:05:50;53.30;;;22.60;;
43114;SDS011;28727;50.068;14.452;2024-01-30T05:08:23;48.85;;;21.35;;
43114;SDS011;28727;50.068;14.452;2024-01-30T05:10:55;51.40;;;23.20;;
43114;SDS011;28727;50.068;14.452;2024-01-30T05:13:26;50.50;;;20.77;;
43114;SDS011;28727;50.068;14.452;2024-01-30T05:15:59;48.35;;;22.00;;
43114;SDS011;28727;50.068;14.452;2024-01-30T05:18:33;50.78;;;22.35;;
43114;SDS011;28727;50.068;14.452;2024-01-30T05:21:05;60.97;;;22.60;;
43114;SDS011;28727;50.068;14.452;2024-01-30T05:23:37;53.83;;;22.80;;
43114;SDS011;28727;50.068;14.452;2024-01-30T05:26:11;56.25;;;23.00;;
43114;SDS011;28727;50.068;14.452;2024-01-30T05:28:45;58.85;;;24.10;;
43114;SDS011;28727;50.068;14.452;2024-01-30T05:31:17;61.53;;;23.30;;
43114;SDS011;28727;50.068;14.452;2024-01-30T05:33:53;62.95;;;24.98;;
43114;SDS011;28727;50.068;14.452;2024-01-30T05:36:26;53.30;;;23.35;;
43114;SDS011;28727;50.068;14.452;2024-01-30T05:38:58;54.38;;;23.50;;
43114;SDS011;28727;50.068;14.452;2024-01-30T05:41:32;60.15;;;24.40;;
43114;SDS011;28727;50.068;14.452;2024-01-30T05:44:05;58.20;;;22.67;;
43114;SDS011;28727;50.068;14.452;2024-01-30T05:46:37;62.47;;;24.95;;
43114;SDS011;28727;50.068;14.452;2024-01-30T05:49:09;54.70;;;24.33;;
43114;SDS011;28727;50.068;14.452;2024-01-30T05:51:46;53.95;;;22.60;;
43114;SDS011;28727;50.068;14.452;2024-01-30T05:54:18;63.75;;;24.50;;
43114;SDS011;28727;50.068;14.452;2024-01-30T05:56:50;63.28;;;24.73;;
43114;SDS011;28727;50.068;14.452;2024-01-30T05:59:22;58.00;;;23.58;;
43114;SDS011;28727;50.068;14.452;2024-01-30T06:01:58;62.83;;;24.45;;
43114;SDS011;28727;50.068;14.452;2024-01-30T06:04:30;58.63;;;23.08;;
43114;SDS011;28727;50.068;14.452;2024-01-30T06:07:03;62.85;;;24.85;;
43114;SDS011;28727;50.068;14.452;2024-01-30T06:09:41;63.85;;;25.00;;
43114;SDS011;28727;50.068;14.452;2024-01-30T06:12:13;65.85;;;26.02;;
43114;SDS011;28727;50.068;14.452;2024-01-30T06:14:45;61.63;;;25.73;;
43114;SDS011;28727;50.068;14.452;2024-01-30T06:17:21;59.47;;;24.42;;
43114;SDS011;28727;50.068;14.452;2024-01-30T06:19:55;57.25;;;23.27;;
43114;SDS011;28727;50.068;14.452;2024-01-30T06:22:27;60.97;;;24.58;;
43114;SDS011;28727;50.068;14.452;2024-01-30T06:24:59;56.25;;;24.13;;
43114;SDS011;28727;50.068;14.452;2024-01-30T06:27:32;55.95;;;24.40;;
43114;SDS011;28727;50.068;14.452;2024-01-30T06:30:06;60.15;;;26.67;;
43114;SDS011;28727;50.068;14.452;2024-01-30T06:32:42;57.42;;;25.33;;
43114;SDS011;28727;50.068;14.452;2024-01-30T06:35:14;55.40;;;24.40;;
43114;SDS011;28727;50.068;14.452;2024-01-30T06:37:49;55.80;;;24.45;;
43114;SDS011;28727;50.068;14.452;2024-01-30T06:40:21;61.78;;;25.00;;
43114;SDS011;28727;50.068;14.452;2024-01-30T06:42:53;56.30;;;25.58;;
43114;SDS011;28727;50.068;14.452;2024-01-30T06:45:25;61.40;;;25.67;;
43114;SDS011;28727;50.068;14.452;2024-01-30T06:47:56;54.75;;;24.25;;
43114;SDS011;28727;50.068;14.452;2024-01-30T06:50:29;56.58;;;24.25;;
43114;SDS011;28727;50.068;14.452;2024-01-30T06:53:03;58.33;;;25.92;;
43114;SDS011;28727;50.068;14.452;2024-01-30T06:55:36;51.03;;;23.17;;
43114;SDS011;28727;50.068;14.452;2024-01-30T06:58:08;53.75;;;24.98;;
43114;SDS011;28727;50.068;14.452;2024-01-30T07:00:41;49.08;;;22.33;;
43114;SDS011;28727;50.068;14.452;2024-01-30T07:03:13;47.50;;;21.15;;
43114;SDS011;28727;50.068;14.452;2024-01-30T07:05:45;54.50;;;23.23;;
43114;SDS011;28727;50.068;14.452;2024-01-30T07:08:17;48.42;;;21.55;;
43114;SDS011;28727;50.068;14.452;2024-01-30T07:10:51;48.33;;;21.83;;
43114;SDS011;28727;50.068;14.452;2024-01-30T07:13:31;51.78;;;22.17;;
43114;SDS011;28727;50.068;14.452;2024-01-30T07:16:03;48.17;;;21.23;;
43114;SDS011;28727;50.068;14.452;2024-01-30T07:18:35;47.05;;;21.38;;
43114;SDS011;28727;50.068;14.452;2024-01-30T07:21:08;44.50;;;21.95;;
43114;SDS011;28727;50.068;14.452;2024-01-30T07:23:40;47.30;;;21.40;;
43114;SDS011;28727;50.068;14.452;2024-01-30T07:26:16;48.20;;;21.73;;
43114;SDS011;28727;50.068;14.452;2024-01-30T07:28:51;45.38;;;21.08;;
43114;SDS011;28727;50.068;14.452;2024-01-30T07:31:23;48.33;;;21.42;;
43114;SDS011;28727;50.068;14.452;2024-01-30T07:33:55;55.05;;;25.48;;
43114;SDS011;28727;50.068;14.452;2024-01-30T07:36:27;49.42;;;23.20;;
43114;SDS011;28727;50.068;14.452;2024-01-30T07:38:59;49.95;;;22.73;;
43114;SDS011;28727;50.068;14.452;2024-01-30T07:41:35;49.08;;;20.85;;
43114;SDS011;28727;50.068;14.452;2024-01-30T07:44:13;45.17;;;19.90;;
43114;SDS011;28727;50.068;14.452;2024-01-30T07:46:44;47.75;;;22.77;;
43114;SDS011;28727;50.068;14.452;2024-01-30T07:49:17;49.65;;;21.85;;
43114;SDS011;28727;50.068;14.452;2024-01-30T07:51:50;52.42;;;21.80;;
43114;SDS011;28727;50.068;14.452;2024-01-30T07:54:22;48.72;;;22.92;;
43114;SDS011;28727;50.068;14.452;2024-01-30T07:56:55;42.28;;;20.73;;
43114;SDS011;28727;50.068;14.452;2024-01-30T07:59:34;48.83;;;22.17;;
43114;SDS011;28727;50.068;14.452;2024-01-30T08:02:06;53.95;;;22.10;;
43114;SDS011;28727;50.068;14.452;2024-01-30T08:04:41;46.40;;;21.33;;
43114;SDS011;28727;50.068;14.452;2024-01-30T08:07:18;53.53;;;22.95;;
43114;SDS011;28727;50.068;14.452;2024-01-30T08:09:52;52.75;;;23.63;;
43114;SDS011;28727;50.068;14.452;2024-01-30T08:12:24;49.10;;;22.75;;
43114;SDS011;28727;50.068;14.452;2024-01-30T08:14:56;52.95;;;23.63;;
43114;SDS011;28727;50.068;14.452;2024-01-30T08:17:30;49.07;;;22.87;;
43114;SDS011;28727;50.068;14.452;2024-01-30T08:20:03;48.50;;;23.42;;
43114;SDS011;28727;50.068;14.452;2024-01-30T08:22:38;52.45;;;22.67;;
43114;SDS011;28727;50.068;14.452;2024-01-30T08:25:12;52.58;;;25.60;;
43114;SDS011;28727;50.068;14.452;2024-01-30T08:27:44;50.78;;;24.27;;
43114;SDS011;28727;50.068;14.452;2024-01-30T08:30:17;53.50;;;24.25;;
43114;SDS011;28727;50.068;14.452;2024-01-30T08:32:56;50.80;;;23.30;;
43114;SDS011;28727;50.068;14.452;2024-01-30T08:35:31;46.78;;;22.60;;
43114;SDS011;28727;50.068;14.452;2024-01-30T08:38:05;55.50;;;26.35;;
43114;SDS011;28727;50.068;14.452;2024-01-30T08:40:41;55.67;;;24.45;;
43114;SDS011;28727;50.068;14.452;2024-01-30T08:43:14;51.45;;;23.77;;
43114;SDS011;28727;50.068;14.452;2024-01-30T08:48:21;55.22;;;25.02;;
43114;SDS011;28727;50.068;14.452;2024-01-30T08:50:55;50.30;;;25.48;;
43114;SDS011;28727;50.068;14.452;2024-01-30T08:53:27;58.33;;;25.55;;
43114;SDS011;28727;50.068;14.452;2024-01-30T08:58:37;57.47;;;24.95;;
43114;SDS011;28727;50.068;14.452;2024-01-30T09:01:11;57.50;;;26.85;;
43114;SDS011;28727;50.068;14.452;2024-01-30T09:03:44;62.17;;;28.92;;
43114;SDS011;28727;50.068;14.452;2024-01-30T09:06:18;59.63;;;28.60;;
43114;SDS011;28727;50.068;14.452;2024-01-30T09:08:53;59.00;;;26.13;;
43114;SDS011;28727;50.068;14.452;2024-01-30T09:11:25;60.22;;;28.55;;
43114;SDS011;28727;50.068;14.452;2024-01-30T09:13:57;61.30;;;27.48;;
43114;SDS011;28727;50.068;14.452;2024-01-30T09:16:29;55.35;;;27.38;;
43114;SDS011;28727;50.068;14.452;2024-01-30T09:19:01;56.22;;;26.77;;
43114;SDS011;28727;50.068;14.452;2024-01-30T09:24:10;52.10;;;25.63;;
43114;SDS011;28727;50.068;14.452;2024-01-30T09:26:42;54.78;;;26.67;;
43114;SDS011;28727;50.068;14.452;2024-01-30T09:29:17;51.95;;;25.73;;
43114;SDS011;28727;50.068;14.452;2024-01-30T09:31:53;54.88;;;26.98;;
43114;SDS011;28727;50.068;14.452;2024-01-30T09:34:26;59.65;;;25.98;;
43114;SDS011;28727;50.068;14.452;2024-01-30T09:36:59;58.13;;;27.10;;
43114;SDS011;28727;50.068;14.452;2024-01-30T09:39:34;57.65;;;27.42;;
43114;SDS011;28727;50.068;14.452;2024-01-30T09:42:11;54.58;;;27.73;;
43114;SDS011;28727;50.068;14.452;2024-01-30T09:45:04;58.20;;;27.80;;
43114;SDS011;28727;50.068;14.452;2024-01-30T09:47:41;68.13;;;31.17;;
43114;SDS011;28727;50.068;14.452;2024-01-30T09:50:22;57.97;;;28.55;;
43114;SDS011;28727;50.068;14.452;2024-01-30T09:52:55;57.70;;;28.13;;
43114;SDS011;28727;50.068;14.452;2024-01-30T09:55:37;51.10;;;26.50;;
43114;SDS011;28727;50.068;14.452;2024-01-30T09:58:09;57.22;;;28.65;;
43114;SDS011;28727;50.068;14.452;2024-01-30T10:00:41;54.83;;;27.48;;
43114;SDS011;28727;50.068;14.452;2024-01-30T10:03:13;50.33;;;25.75;;
43114;SDS011;28727;50.068;14.452;2024-01-30T10:05:53;48.43;;;25.03;;
43114;SDS011;28727;50.068;14.452;2024-01-30T10:08:30;49.13;;;25.13;;
43114;SDS011;28727;50.068;14.452;2024-01-30T10:11:05;49.70;;;24.88;;
43114;SDS011;28727;50.068;14.452;2024-01-30T10:13:41;44.67;;;24.75;;
43114;SDS011;28727;50.068;14.452;2024-01-30T10:16:16;48.67;;;26.00;;
43114;SDS011;28727;50.068;14.452;2024-01-30T10:19:01;48.20;;;25.00;;
43114;SDS011;28727;50.068;14.452;2024-01-30T10:21:34;45.63;;;24.98;;
43114;SDS011;28727;50.068;14.452;2024-01-30T10:24:06;50.38;;;26.20;;
43114;SDS011;28727;50.068;14.452;2024-01-30T10:26:38;44.97;;;24.00;;
43114;SDS011;28727;50.068;14.452;2024-01-30T10:29:14;46.10;;;25.60;;
43114;SDS011;28727;50.068;14.452;2024-01-30T10:31:57;42.50;;;23.38;;
43114;SDS011;28727;50.068;14.452;2024-01-30T10:34:35;43.30;;;24.05;;
43114;SDS011;28727;50.068;14.452;2024-01-30T10:37:09;41.72;;;22.33;;
43114;SDS011;28727;50.068;14.452;2024-01-30T10:39:49;44.15;;;23.10;;
43114;SDS011;28727;50.068;14.452;2024-01-30T10:42:27;37.78;;;21.00;;
43114;SDS011;28727;50.068;14.452;2024-01-30T10:47:54;41.00;;;20.75;;
43114;SDS011;28727;50.068;14.452;2024-01-30T10:50:29;39.35;;;21.10;;
43114;SDS011;28727;50.068;14.452;2024-01-30T10:53:02;37.38;;;21.10;;
43114;SDS011;28727;50.068;14.452;2024-01-30T10:55:35;39.20;;;20.42;;
43114;SDS011;28727;50.068;14.452;2024-01-30T10:58:11;38.50;;;20.92;;
43114;SDS011;28727;50.068;14.452;2024-01-30T11:00:47;38.72;;;21.00;;
43114;SDS011;28727;50.068;14.452;2024-01-30T11:03:21;36.30;;;19.90;;
43114;SDS011;28727;50.068;14.452;2024-01-30T11:05:58;40.30;;;20.23;;
43114;SDS011;28727;50.068;14.452;2024-01-30T11:08:34;38.90;;;20.30;;
43114;SDS011;28727;50.068;14.452;2024-01-30T11:11:10;41.55;;;20.95;;
43114;SDS011;28727;50.068;14.452;2024-01-30T11:13:44;38.30;;;20.30;;
43114;SDS011;28727;50.068;14.452;2024-01-30T11:16:17;38.72;;;21.40;;
43114;SDS011;28727;50.068;14.452;2024-01-30T11:18:52;39.70;;;21.15;;
43114;SDS011;28727;50.068;14.452;2024-01-30T11:21:25;40.03;;;20.88;;
43114;SDS011;28727;50.068;14.452;2024-01-30T11:24:03;37.50;;;20.73;;
43114;SDS011;28727;50.068;14.452;2024-01-30T11:26:38;38.97;;;20.58;;
43114;SDS011;28727;50.068;14.452;2024-01-30T11:29:13;39.83;;;20.38;;
43114;SDS011;28727;50.068;14.452;2024-01-30T11:34:24;43.55;;;22.25;;
43114;SDS011;28727;50.068;14.452;2024-01-30T11:37:01;44.85;;;21.55;;
43114;SDS011;28727;50.068;14.452;2024-01-30T11:39:35;39.08;;;21.02;;
43114;SDS011;28727;50.068;14.452;2024-01-30T11:42:08;37.33;;;20.27;;
43114;SDS011;28727;50.068;14.452;2024-01-30T11:44:40;38.38;;;20.45;;
43114;SDS011;28727;50.068;14.452;2024-01-30T11:47:12;37.90;;;21.73;;
43114;SDS011;28727;50.068;14.452;2024-01-30T11:49:44;38.78;;;21.77;;
43114;SDS011;28727;50.068;14.452;2024-01-30T11:52:18;37.67;;;21.13;;
43114;SDS011;28727;50.068;14.452;2024-01-30T11:54:50;39.03;;;21.40;;
43114;SDS011;28727;50.068;14.452;2024-01-30T11:57:23;39.80;;;23.02;;
43114;SDS011;28727;50.068;14.452;2024-01-30T11:59:55;38.63;;;20.98;;
43114;SDS011;28727;50.068;14.452;2024-01-30T12:02:27;40.33;;;22.67;;
43114;SDS011;28727;50.068;14.452;2024-01-30T12:05:03;42.08;;;22.52;;
43114;SDS011;28727;50.068;14.452;2024-01-30T12:07:38;35.67;;;20.88;;
43114;SDS011;28727;50.068;14.452;2024-01-30T12:10:10;42.25;;;21.45;;
43114;SDS011;28727;50.068;14.452;2024-01-30T12:12:44;37.97;;;21.27;;
43114;SDS011;28727;50.068;14.452;2024-01-30T12:15:21;43.42;;;22.02;;
43114;SDS011;28727;50.068;14.452;2024-01-30T12:18:03;36.20;;;20.07;;
43114;SDS011;28727;50.068;14.452;2024-01-30T12:20:38;37.20;;;20.40;;
43114;SDS011;28727;50.068;14.452;2024-01-30T12:23:11;38.40;;;20.55;;
43114;SDS011;28727;50.068;14.452;2024-01-30T12:25:49;41.05;;;22.90;;
43114;SDS011;28727;50.068;14.452;2024-01-30T12:28:21;36.35;;;21.13;;
43114;SDS011;28727;50.068;14.452;2024-01-30T12:30:56;38.42;;;22.02;;
43114;SDS011;28727;50.068;14.452;2024-01-30T12:33:33;37.65;;;20.13;;
43114;SDS011;28727;50.068;14.452;2024-01-30T12:36:07;29.85;;;15.95;;
43114;SDS011;28727;50.068;14.452;2024-01-30T12:38:39;34.53;;;19.35;;
43114;SDS011;28727;50.068;14.452;2024-01-30T12:41:11;34.13;;;20.13;;
43114;SDS011;28727;50.068;14.452;2024-01-30T12:43:43;38.63;;;22.48;;
43114;SDS011;28727;50.068;14.452;2024-01-30T12:46:16;32.92;;;20.08;;
43114;SDS011;28727;50.068;14.452;2024-01-30T12:48:49;34.72;;;20.35;;
43114;SDS011;28727;50.068;14.452;2024-01-30T12:51:21;36.70;;;20.42;;
43114;SDS011;28727;50.068;14.452;2024-01-30T12:53:53;37.25;;;20.77;;
43114;SDS011;28727;50.068;14.452;2024-01-30T12:56:31;37.72;;;20.77;;
43114;SDS011;28727;50.068;14.452;2024-01-30T12:59:05;28.07;;;16.23;;
43114;SDS011;28727;50.068;14.452;2024-01-30T13:01:39;34.95;;;20.85;;
43114;SDS011;28727;50.068;14.452;2024-01-30T13:04:12;36.03;;;20.25;;
43114;SDS011;28727;50.068;14.452;2024-01-30T13:06:44;38.85;;;20.63;;
43114;SDS011;28727;50.068;14.452;2024-01-30T13:09:17;40.17;;;22.35;;
43114;SDS011;28727;50.068;14.452;2024-01-30T13:11:49;38.25;;;21.60;;
43114;SDS011;28727;50.068;14.452;2024-01-30T13:14:22;35.80;;;20.35;;
43114;SDS011;28727;50.068;14.452;2024-01-30T13:16:55;40.45;;;22.38;;
43114;SDS011;28727;50.068;14.452;2024-01-30T13:19:27;37.90;;;19.88;;
43114;SDS011;28727;50.068;14.452;2024-01-30T13:22:00;37.17;;;21.47;;
43114;SDS011;28727;50.068;14.452;2024-01-30T13:24:36;35.70;;;21.33;;
43114;SDS011;28727;50.068;14.452;2024-01-30T13:29:42;38.47;;;21.55;;
43114;SDS011;28727;50.068;14.452;2024-01-30T13:32:14;37.80;;;21.13;;
43114;SDS011;28727;50.068;14.452;2024-01-30T13:34:46;39.60;;;21.83;;
43114;SDS011;28727;50.068;14.452;2024-01-30T13:37:22;40.00;;;21.17;;
43114;SDS011;28727;50.068;14.452;2024-01-30T13:39:56;35.33;;;20.40;;
43114;SDS011;28727;50.068;14.452;2024-01-30T13:42:30;37.25;;;20.42;;
43114;SDS011;28727;50.068;14.452;2024-01-30T13:45:02;38.08;;;21.75;;
43114;SDS011;28727;50.068;14.452;2024-01-30T13:47:34;36.38;;;21.77;;
43114;SDS011;28727;50.068;14.452;2024-01-30T13:50:07;41.60;;;22.55;;
43114;SDS011;28727;50.068;14.452;2024-01-30T13:52:49;41.42;;;22.27;;
43114;SDS011;28727;50.068;14.452;2024-01-30T13:55:21;37.30;;;21.10;;
43114;SDS011;28727;50.068;14.452;2024-01-30T13:57:52;35.08;;;20.30;;
43114;SDS011;28727;50.068;14.452;2024-01-30T14:00:24;35.53;;;20.90;;
43114;SDS011;28727;50.068;14.452;2024-01-30T14:02:57;40.28;;;21.27;;
43114;SDS011;28727;50.068;14.452;2024-01-30T14:05:30;38.38;;;21.20;;
43114;SDS011;28727;50.068;14.452;2024-01-30T14:08:03;39.20;;;20.98;;
43114;SDS011;28727;50.068;14.452;2024-01-30T14:10:37;38.30;;;21.42;;
43114;SDS011;28727;50.068;14.452;2024-01-30T14:13:09;36.97;;;20.70;;
43114;SDS011;28727;50.068;14.452;2024-01-30T14:15:43;41.97;;;22.13;;
43114;SDS011;28727;50.068;14.452;2024-01-30T14:18:16;39.30;;;20.75;;
43114;SDS011;28727;50.068;14.452;2024-01-30T14:20:51;36.85;;;21.73;;
43114;SDS011;28727;50.068;14.452;2024-01-30T14:23:27;41.50;;;22.17;;
43114;SDS011;28727;50.068;14.452;2024-01-30T14:28:31;38.05;;;22.20;;
43114;SDS011;28727;50.068;14.452;2024-01-30T14:31:03;41.13;;;22.55;;
43114;SDS011;28727;50.068;14.452;2024-01-30T14:33:35;37.72;;;22.38;;
43114;SDS011;28727;50.068;14.452;2024-01-30T14:36:08;36.45;;;21.60;;
43114;SDS011;28727;50.068;14.452;2024-01-30T14:38:41;38.13;;;21.75;;
43114;SDS011;28727;50.068;14.452;2024-01-30T14:41:14;40.28;;;22.42;;
43114;SDS011;28727;50.068;14.452;2024-01-30T14:43:52;39.40;;;23.45;;
43114;SDS011;28727;50.068;14.452;2024-01-30T14:46:27;45.28;;;24.50;;
43114;SDS011;28727;50.068;14.452;2024-01-30T14:48:59;41.75;;;24.25;;
43114;SDS011;28727;50.068;14.452;2024-01-30T14:51:31;40.72;;;23.48;;
43114;SDS011;28727;50.068;14.452;2024-01-30T14:54:07;41.40;;;24.25;;
43114;SDS011;28727;50.068;14.452;2024-01-30T14:56:39;42.42;;;23.55;;
43114;SDS011;28727;50.068;14.452;2024-01-30T14:59:12;40.92;;;22.08;;
43114;SDS011;28727;50.068;14.452;2024-01-30T15:01:45;41.50;;;23.58;;
43114;SDS011;28727;50.068;14.452;2024-01-30T15:04:17;40.28;;;22.90;;
43114;SDS011;28727;50.068;14.452;2024-01-30T15:06:49;45.78;;;25.20;;
43114;SDS011;28727;50.068;14.452;2024-01-30T15:09:21;43.35;;;24.70;;